createdAt,value
2019-02-17T00:00:24.834Z,99.90
2019-02-17T00:03:28.721Z,99.90
2019-02-17T00:06:32.563Z,99.90
2019-02-17T00:09:36.439Z,99.90
2019-02-17T00:12:40.285Z,99.90
2019-02-17T00:15:44.189Z,99.90
2019-02-17T00:18:48.190Z,99.90
2019-02-17T00:21:52.029Z,99.90
2019-02-17T00:24:55.949Z,99.90
2019-02-17T00:27:59.873Z,99.90
2019-02-17T00:31:03.816Z,99.90
2019-02-17T00:34:07.631Z,99.90
2019-02-17T00:37:11.499Z,99.90
2019-02-17T00:40:15.384Z,99.90
2019-02-17T00:43:19.229Z,99.90
2019-02-17T00:46:23.116Z,99.90
2019-02-17T00:49:27.876Z,99.90
2019-02-17T00:52:32.996Z,99.90
2019-02-17T00:55:36.841Z,99.90
2019-02-17T00:58:40.709Z,99.90
2019-02-17T01:01:44.619Z,99.90
2019-02-17T01:04:48.467Z,99.90
2019-02-17T01:07:52.358Z,99.90
2019-02-17T01:10:56.240Z,99.90
2019-02-17T01:14:00.143Z,99.90
2019-02-17T01:17:03.997Z,99.90
2019-02-17T01:20:09.800Z,99.90
2019-02-17T01:23:13.671Z,99.90
2019-02-17T01:26:17.502Z,99.90
2019-02-17T01:29:21.393Z,99.90
2019-02-17T01:32:25.226Z,99.90
2019-02-17T01:35:29.305Z,99.90
2019-02-17T01:38:33.156Z,99.90
2019-02-17T01:41:37.440Z,99.90
2019-02-17T01:44:41.267Z,99.90
2019-02-17T01:47:45.166Z,99.90
2019-02-17T01:50:49.109Z,99.90
2019-02-17T01:53:52.943Z,99.90
2019-02-17T01:56:56.836Z,99.90
2019-02-17T02:00:00.716Z,99.90
2019-02-17T02:03:05.971Z,99.90
2019-02-17T02:06:09.800Z,99.90
2019-02-17T02:09:13.694Z,99.90
2019-02-17T02:12:17.537Z,99.90
2019-02-17T02:15:21.423Z,99.90
2019-02-17T02:18:25.293Z,99.90
2019-02-17T02:21:29.151Z,99.90
2019-02-17T02:24:33.083Z,99.90
2019-02-17T02:27:36.975Z,99.90
2019-02-17T02:30:41.234Z,99.90
2019-02-17T02:33:45.116Z,99.90
2019-02-17T02:36:48.972Z,99.90
2019-02-17T02:39:52.854Z,99.90
2019-02-17T02:42:56.689Z,99.90
2019-02-17T02:46:00.555Z,99.90
2019-02-17T02:49:04.411Z,99.90
2019-02-17T02:52:08.271Z,99.90
2019-02-17T02:55:12.175Z,99.90
2019-02-17T02:58:16.017Z,99.90
2019-02-17T03:01:19.953Z,99.90
2019-02-17T03:04:23.783Z,99.90
2019-02-17T03:07:27.671Z,99.90
2019-02-17T03:10:31.544Z,99.90
2019-02-17T03:13:35.420Z,99.90
2019-02-17T03:16:39.304Z,99.90
2019-02-17T03:19:43.150Z,99.90
2019-02-17T03:22:47.076Z,99.90
2019-02-17T03:25:50.920Z,99.90
2019-02-17T03:28:54.791Z,99.90
2019-02-17T03:31:58.717Z,99.90
2019-02-17T03:35:02.571Z,99.90
2019-02-17T03:38:06.459Z,99.90
2019-02-17T03:41:10.288Z,99.90
2019-02-17T03:44:14.165Z,99.90
2019-02-17T03:47:18.006Z,99.90
2019-02-17T03:50:21.900Z,99.90
2019-02-17T03:53:25.748Z,99.90
2019-02-17T03:56:29.641Z,99.90
2019-02-17T03:59:33.523Z,99.90
2019-02-17T04:02:37.358Z,99.90
2019-02-17T04:05:41.256Z,99.90
2019-02-17T04:08:45.105Z,99.90
2019-02-17T04:11:48.997Z,99.90
2019-02-17T04:14:52.865Z,99.90
2019-02-17T04:17:56.713Z,99.90
2019-02-17T04:21:00.596Z,99.90
2019-02-17T04:24:04.463Z,99.90
2019-02-17T04:27:08.330Z,99.90
2019-02-17T04:30:12.291Z,99.90
2019-02-17T04:33:16.144Z,99.90
2019-02-17T04:36:20.058Z,99.90
2019-02-17T04:39:23.893Z,99.90
2019-02-17T04:42:27.771Z,99.90
2019-02-17T04:45:31.597Z,99.90
2019-02-17T04:48:35.470Z,99.90
2019-02-17T04:51:39.318Z,99.90
2019-02-17T04:54:43.255Z,99.90
2019-02-17T04:57:47.151Z,99.90
2019-02-17T05:00:51.003Z,99.90
2019-02-17T05:03:54.893Z,99.90
2019-02-17T05:06:58.737Z,99.90
2019-02-17T05:10:02.599Z,99.90
2019-02-17T05:13:06.461Z,99.90
2019-02-17T05:16:10.357Z,99.90
2019-02-17T05:19:14.211Z,99.90
2019-02-17T05:22:18.088Z,99.90
2019-02-17T05:25:21.977Z,99.90
2019-02-17T05:28:25.834Z,99.90
2019-02-17T05:31:29.720Z,99.90
2019-02-17T05:34:33.663Z,99.90
2019-02-17T05:37:37.540Z,99.90
2019-02-17T05:40:41.418Z,99.90
2019-02-17T05:43:45.275Z,99.90
2019-02-17T05:46:49.160Z,99.90
2019-02-17T05:49:53.018Z,99.90
2019-02-17T05:52:56.908Z,99.90
2019-02-17T05:56:00.994Z,99.90
2019-02-17T05:59:04.872Z,99.90
2019-02-17T06:02:08.770Z,99.90
2019-02-17T06:05:12.619Z,99.90
2019-02-17T06:08:16.543Z,99.90
2019-02-17T06:11:20.375Z,99.90
2019-02-17T06:14:24.274Z,99.90
2019-02-17T06:17:28.103Z,99.90
2019-02-17T06:20:31.995Z,99.90
2019-02-17T06:23:35.828Z,99.90
2019-02-17T06:26:39.751Z,99.90
2019-02-17T06:29:43.750Z,99.90
2019-02-17T06:32:47.635Z,99.90
2019-02-17T06:35:51.534Z,99.90
2019-02-17T06:38:55.396Z,99.60
2019-02-17T06:41:59.311Z,96.80
2019-02-17T06:45:03.349Z,92.70
2019-02-17T06:48:07.234Z,86.90
2019-02-17T06:51:11.142Z,80.90
2019-02-17T06:54:14.951Z,72.30
2019-02-17T06:57:20.416Z,67.10
2019-02-17T07:00:25.818Z,60.90
2019-02-17T07:03:29.928Z,67.30
2019-02-17T07:06:37.878Z,66.60
2019-02-17T07:09:41.707Z,68.50
2019-02-17T07:12:45.597Z,67.50
2019-02-17T07:15:49.437Z,65.60
2019-02-17T07:18:53.329Z,58.90
2019-02-17T07:21:57.156Z,51.60
2019-02-17T07:25:01.076Z,49.00
2019-02-17T07:28:04.909Z,45.60
2019-02-17T07:31:08.991Z,48.70
2019-02-17T07:34:12.901Z,44.20
2019-02-17T07:37:19.210Z,43.50
2019-02-17T07:40:22.301Z,42.20
2019-02-17T07:43:26.146Z,37.90
2019-02-17T07:46:30.035Z,38.00
2019-02-17T07:49:33.864Z,38.40
2019-02-17T07:52:37.936Z,41.50
2019-02-17T07:55:41.972Z,46.50
2019-02-17T07:58:45.944Z,50.00
2019-02-17T08:01:49.813Z,54.50
2019-02-17T08:04:53.671Z,58.70
2019-02-17T08:07:57.716Z,65.00
2019-02-17T08:11:04.032Z,72.60
2019-02-17T08:14:07.184Z,72.30
2019-02-17T08:17:11.063Z,76.00
2019-02-17T08:20:14.939Z,78.30
2019-02-17T08:23:18.823Z,77.80
2019-02-17T08:26:22.698Z,82.80
2019-02-17T08:29:26.605Z,82.90
2019-02-17T08:32:32.142Z,81.60
2019-02-17T08:35:36.028Z,83.50
2019-02-17T08:38:39.879Z,84.70
2019-02-17T08:41:43.722Z,84.20
2019-02-17T08:44:47.608Z,84.70
2019-02-17T08:47:51.432Z,85.30
2019-02-17T08:50:55.330Z,86.40
2019-02-17T08:53:59.184Z,86.70
2019-02-17T08:57:03.034Z,86.20
2019-02-17T09:00:14.345Z,84.40
2019-02-17T09:03:18.219Z,84.50
2019-02-17T09:06:22.097Z,83.60
2019-02-17T09:09:25.953Z,83.70
2019-02-17T09:12:29.835Z,81.40
2019-02-17T09:15:33.703Z,82.30
2019-02-17T09:18:37.572Z,81.60
2019-02-17T09:21:41.457Z,79.20
2019-02-17T09:24:45.304Z,82.40
2019-02-17T09:27:49.208Z,83.00
2019-02-17T09:30:53.145Z,80.80
2019-02-17T09:33:57.077Z,76.40
2019-02-17T09:37:00.990Z,73.30
2019-02-17T09:40:06.611Z,72.10
2019-02-17T09:43:10.504Z,63.40
2019-02-17T09:46:14.359Z,62.30
2019-02-17T09:49:18.234Z,65.70
2019-02-17T09:52:22.090Z,70.00
2019-02-17T09:55:25.972Z,71.20
2019-02-17T09:58:29.841Z,69.70
2019-02-17T10:01:33.663Z,69.00
2019-02-17T10:04:37.552Z,67.00
2019-02-17T10:07:41.395Z,62.00
2019-02-17T10:10:45.272Z,51.20
2019-02-17T10:13:49.189Z,51.60
2019-02-17T10:16:53.044Z,49.10
2019-02-17T10:19:56.906Z,47.20
2019-02-17T10:23:00.775Z,45.70
2019-02-17T10:26:04.706Z,41.60
2019-02-17T10:29:08.570Z,38.50
2019-02-17T10:32:12.456Z,34.30
2019-02-17T10:35:16.358Z,34.80
2019-02-17T10:38:20.256Z,34.70
2019-02-17T10:41:24.107Z,33.50
2019-02-17T10:44:27.980Z,33.70
2019-02-17T10:47:31.806Z,32.10
2019-02-17T10:50:35.670Z,30.90
2019-02-17T10:53:39.604Z,30.80
2019-02-17T10:56:43.506Z,33.00
2019-02-17T10:59:47.437Z,31.60
2019-02-17T11:02:51.291Z,30.20
2019-02-17T11:05:55.170Z,30.80
2019-02-17T11:08:59.090Z,35.40
2019-02-17T11:12:02.972Z,40.60
2019-02-17T11:15:30.420Z,46.00
2019-02-17T11:18:34.332Z,49.80
2019-02-17T11:21:38.167Z,52.30
2019-02-17T11:24:42.004Z,52.00
2019-02-17T11:27:45.915Z,53.20
2019-02-17T11:30:49.749Z,56.60
2019-02-17T11:33:53.604Z,56.00
2019-02-17T11:36:57.441Z,56.90
2019-02-17T11:40:01.330Z,58.50
2019-02-17T11:43:05.191Z,59.30
2019-02-17T11:46:09.024Z,57.90
2019-02-17T11:49:12.890Z,57.60
2019-02-17T11:52:16.716Z,58.60
2019-02-17T11:55:22.680Z,59.70
2019-02-17T11:58:26.140Z,58.60
2019-02-17T12:01:29.960Z,57.90
2019-02-17T12:04:36.092Z,58.40
2019-02-17T12:07:39.919Z,58.40
2019-02-17T12:10:44.192Z,58.10
2019-02-17T12:13:48.037Z,60.20
2019-02-17T12:16:51.916Z,58.70
2019-02-17T12:19:57.274Z,58.90
2019-02-17T12:23:02.810Z,59.50
2019-02-17T12:26:10.972Z,57.70
2019-02-17T12:29:16.376Z,59.40
2019-02-17T12:32:21.829Z,59.20
2019-02-17T12:35:25.653Z,59.10
2019-02-17T12:38:29.573Z,58.10
2019-02-17T12:41:33.444Z,58.10
2019-02-17T12:44:37.294Z,58.00
2019-02-17T12:47:41.174Z,59.50
2019-02-17T12:50:45.006Z,58.60
2019-02-17T12:53:48.869Z,58.70
2019-02-17T12:56:52.834Z,58.90
2019-02-17T12:59:56.671Z,57.90
2019-02-17T13:03:00.623Z,58.10
2019-02-17T13:06:04.451Z,58.00
2019-02-17T13:09:08.361Z,55.90
2019-02-17T13:12:12.184Z,55.70
2019-02-17T13:15:16.480Z,55.80
2019-02-17T13:18:20.352Z,55.70
2019-02-17T13:21:24.190Z,57.40
2019-02-17T13:24:28.062Z,56.50
2019-02-17T13:27:31.884Z,58.00
2019-02-17T13:30:35.760Z,56.60
2019-02-17T13:33:39.724Z,56.70
2019-02-17T13:36:43.591Z,54.80
2019-02-17T13:39:47.501Z,55.70
2019-02-17T13:42:51.296Z,56.10
2019-02-17T13:45:55.406Z,55.40
2019-02-17T13:48:59.298Z,54.30
2019-02-17T13:52:03.150Z,54.30
2019-02-17T13:55:07.367Z,55.70
2019-02-17T13:58:11.217Z,56.60
2019-02-17T14:01:15.104Z,57.90
2019-02-17T14:04:19.094Z,58.30
2019-02-17T14:07:22.948Z,58.70
2019-02-17T14:10:26.792Z,58.90
2019-02-17T14:13:30.660Z,62.10
2019-02-17T14:16:34.496Z,61.20
2019-02-17T14:19:38.390Z,60.70
2019-02-17T14:22:42.310Z,61.40
2019-02-17T14:25:46.135Z,61.50
2019-02-17T14:28:49.991Z,62.50
2019-02-17T14:31:53.839Z,61.90
2019-02-17T14:34:57.714Z,62.90
2019-02-17T14:38:01.531Z,61.20
2019-02-17T14:41:05.421Z,61.50
2019-02-17T14:44:09.225Z,61.50
2019-02-17T14:47:13.090Z,61.10
2019-02-17T14:50:16.972Z,62.60
2019-02-17T14:53:20.817Z,61.90
2019-02-17T14:56:24.695Z,63.50
2019-02-17T14:59:28.520Z,63.60
2019-02-17T15:02:32.391Z,63.60
2019-02-17T15:05:36.231Z,65.20
2019-02-17T15:08:40.131Z,64.20
2019-02-17T15:11:43.980Z,63.50
2019-02-17T15:14:48.029Z,64.10
2019-02-17T15:17:51.909Z,64.80
2019-02-17T15:20:55.761Z,67.00
2019-02-17T15:23:59.618Z,68.00
2019-02-17T15:27:03.473Z,67.80
2019-02-17T15:30:10.255Z,69.40
2019-02-17T15:33:14.128Z,71.80
2019-02-17T15:36:17.997Z,73.10
2019-02-17T15:39:21.873Z,75.50
2019-02-17T15:42:25.691Z,79.10
2019-02-17T15:45:29.572Z,83.00
2019-02-17T15:48:33.409Z,83.30
2019-02-17T15:51:37.270Z,85.50
2019-02-17T15:54:41.127Z,87.60
2019-02-17T15:57:44.977Z,86.60
2019-02-17T16:00:48.798Z,88.10
2019-02-17T16:03:52.604Z,88.70
2019-02-17T16:06:56.495Z,90.80
2019-02-17T16:10:00.324Z,91.30
2019-02-17T16:13:04.208Z,92.20
2019-02-17T16:16:09.402Z,93.10
2019-02-17T16:19:13.601Z,93.10
2019-02-17T16:22:17.459Z,94.10
2019-02-17T16:25:21.285Z,94.60
2019-02-17T16:28:25.153Z,94.90
2019-02-17T16:31:28.974Z,95.50
2019-02-17T16:34:38.442Z,95.50
2019-02-17T16:37:38.355Z,95.50
2019-02-17T16:40:42.163Z,95.80
2019-02-17T16:43:46.049Z,96.00
2019-02-17T16:46:49.891Z,96.20
2019-02-17T16:49:53.771Z,96.60
2019-02-17T16:52:57.617Z,96.80
2019-02-17T16:56:01.452Z,96.60
2019-02-17T16:59:05.415Z,96.70
2019-02-17T17:02:09.435Z,96.70
2019-02-17T17:05:13.305Z,95.70
2019-02-17T17:08:17.180Z,95.40
2019-02-17T17:11:21.112Z,94.90
2019-02-17T17:14:24.975Z,94.90
2019-02-17T17:17:28.879Z,95.00
2019-02-17T17:20:33.032Z,95.20
2019-02-17T17:23:37.325Z,95.60
2019-02-17T17:26:41.251Z,95.60
2019-02-17T17:29:45.119Z,96.00
2019-02-17T17:32:48.970Z,95.70
2019-02-17T17:35:52.820Z,95.60
2019-02-17T17:38:56.656Z,95.60
2019-02-17T17:42:00.529Z,95.90
2019-02-17T17:45:09.930Z,96.00
2019-02-17T17:48:13.766Z,96.00
2019-02-17T17:51:18.384Z,95.70
2019-02-17T17:54:22.187Z,95.70
2019-02-17T17:57:28.544Z,95.70
2019-02-17T18:00:33.937Z,95.70
2019-02-17T18:03:38.610Z,95.70
2019-02-17T18:06:42.847Z,95.40
2019-02-17T18:09:46.962Z,95.90
2019-02-17T18:12:52.242Z,95.40
2019-02-17T18:15:56.050Z,95.60
2019-02-17T18:18:59.900Z,95.20
2019-02-17T18:22:04.542Z,95.20
2019-02-17T18:25:11.469Z,96.10
2019-02-17T18:28:15.587Z,96.10
2019-02-17T18:31:19.845Z,96.90
2019-02-17T18:49:24.439Z,98.10
2019-02-17T19:08:36.551Z,98.70
2019-02-17T19:11:40.391Z,99.80
2019-02-17T19:14:44.255Z,99.90
2019-02-17T19:17:48.260Z,99.60
2019-02-17T19:20:52.104Z,99.70
2019-02-17T19:23:55.983Z,99.90
2019-02-17T19:26:59.947Z,99.70
2019-02-17T19:30:03.931Z,99.90
2019-02-17T19:33:07.829Z,99.90
2019-02-17T19:36:11.662Z,99.90
2019-02-17T19:39:15.743Z,99.90
2019-02-17T19:42:20.096Z,99.90
2019-02-17T19:45:24.048Z,99.90
2019-02-17T19:48:27.983Z,99.90
2019-02-17T19:51:33.437Z,99.90
2019-02-17T19:54:37.354Z,99.90
2019-02-17T19:57:41.751Z,99.90
2019-02-17T20:00:45.603Z,99.90
2019-02-17T20:03:50.999Z,99.90
2019-02-17T20:06:54.873Z,99.90
2019-02-17T20:09:58.736Z,99.90
2019-02-17T20:13:02.549Z,99.90
2019-02-17T20:16:06.462Z,99.90
2019-02-17T20:19:10.238Z,99.90
2019-02-17T20:22:14.365Z,99.90
2019-02-17T20:25:18.257Z,99.90
2019-02-17T20:28:32.442Z,99.90
2019-02-17T20:31:27.791Z,99.90
2019-02-17T20:34:31.650Z,99.90
2019-02-17T20:37:35.516Z,99.90
2019-02-17T20:40:39.377Z,99.90
2019-02-17T20:43:43.212Z,99.90
2019-02-17T20:46:47.089Z,99.90
2019-02-17T20:49:50.883Z,99.90
2019-02-17T20:52:54.751Z,99.90
2019-02-17T20:55:59.934Z,99.90
2019-02-17T20:59:03.800Z,99.90
2019-02-17T21:02:09.149Z,99.90
2019-02-17T21:05:13.247Z,99.90
2019-02-17T21:08:17.265Z,99.90
2019-02-17T21:11:21.112Z,99.90
2019-02-17T21:14:25.020Z,99.90
2019-02-17T21:17:28.912Z,99.90
2019-02-17T21:20:32.991Z,99.90
2019-02-17T21:23:36.899Z,99.90
2019-02-17T21:26:40.763Z,99.90
2019-02-17T21:29:44.697Z,99.90
2019-02-17T21:32:48.502Z,99.90
2019-02-17T21:35:52.366Z,99.90
2019-02-17T21:38:58.677Z,99.90
2019-02-17T21:42:01.711Z,99.90
2019-02-17T21:45:13.344Z,99.90
2019-02-17T21:48:17.197Z,99.90
2019-02-17T21:51:21.109Z,99.90
2019-02-17T21:54:24.931Z,99.90
2019-02-17T21:57:28.796Z,99.90
2019-02-17T22:00:32.620Z,99.90
2019-02-17T22:03:36.515Z,99.90
2019-02-17T22:06:40.335Z,99.90
2019-02-17T22:09:44.229Z,99.90
2019-02-17T22:12:50.900Z,99.90
2019-02-17T22:15:53.653Z,99.90
2019-02-17T22:18:57.500Z,99.90
2019-02-17T22:22:01.392Z,99.90
2019-02-17T22:25:07.333Z,99.90
2019-02-17T22:28:11.225Z,99.90
2019-02-17T22:31:15.076Z,99.90
2019-02-17T22:34:18.933Z,99.90
2019-02-17T22:37:22.760Z,99.90
2019-02-17T22:40:26.617Z,99.90
2019-02-17T22:43:30.532Z,99.90
2019-02-17T22:46:34.376Z,99.90
2019-02-17T22:49:38.265Z,99.90
2019-02-17T22:52:42.083Z,99.90
2019-02-17T22:55:45.931Z,99.90
2019-02-17T22:58:49.776Z,99.90
2019-02-17T23:01:53.719Z,99.90
2019-02-17T23:04:57.570Z,99.90
2019-02-17T23:08:01.449Z,99.90
2019-02-17T23:11:05.321Z,99.90
2019-02-17T23:14:09.176Z,99.90
2019-02-17T23:17:13.029Z,99.90
2019-02-17T23:20:16.934Z,99.90
2019-02-17T23:23:20.800Z,99.90
2019-02-17T23:26:24.644Z,99.90
2019-02-17T23:29:28.512Z,99.90
2019-02-17T23:32:32.347Z,99.90
2019-02-17T23:35:36.178Z,99.90
2019-02-17T23:38:40.038Z,99.90
2019-02-17T23:41:43.854Z,99.90
2019-02-17T23:44:47.732Z,99.90
2019-02-17T23:47:51.630Z,99.90
2019-02-17T23:50:55.444Z,99.90
2019-02-17T23:53:59.296Z,99.90
2019-02-17T23:57:03.122Z,99.90
